Nebo, Missouri
Current Conditions -  °F | °C
As of 10:03 PM on Thursday 18 Dec 2014 (Local Time) from KTBN Reporting Station
Haze Haze  
Wind Chill: 34°   Ceiling: 300
Heat Index: 34°   Visibility: 3mi
Dew Point: 34°   Wind: 3mph
Humidity: 100%   Direction: 120°ESE
Pressure: 30.22"   Gusts: NA
Location:  37.6071°N, 92.343°W
Report Text: KTBN 190403Z AUTO 12003KT 3SM BR OVC003 01/01 A3022 RMK AO2 VIS 1 3/4 RWY32
Loading
Personal Weather Stations






























Interactive Weather Map New forecast layout! Learn more

10-Day Weather Forecast

Advertisements
Track Severe Weather on mobile